sensor_id;sensor_type;location;lat;lon;timestamp;P1;durP1;ratioP1;P2;durP2;ratioP2
11743;SDS011;5929;51.906;7.674;2022-08-25T00:01:19;6.80;;;2.42;;
11743;SDS011;5929;51.906;7.674;2022-08-25T00:03:48;6.15;;;2.00;;
11743;SDS011;5929;51.906;7.674;2022-08-25T00:06:16;5.82;;;2.10;;
11743;SDS011;5929;51.906;7.674;2022-08-25T00:08:44;6.68;;;2.25;;
11743;SDS011;5929;51.906;7.674;2022-08-25T00:11:12;6.63;;;2.22;;
11743;SDS011;5929;51.906;7.674;2022-08-25T00:13:41;8.23;;;2.75;;
11743;SDS011;5929;51.906;7.674;2022-08-25T00:16:10;7.53;;;2.40;;
11743;SDS011;5929;51.906;7.674;2022-08-25T00:18:37;7.53;;;2.60;;
11743;SDS011;5929;51.906;7.674;2022-08-25T00:21:05;9.70;;;2.60;;
11743;SDS011;5929;51.906;7.674;2022-08-25T00:23:33;5.47;;;2.08;;
11743;SDS011;5929;51.906;7.674;2022-08-25T00:26:03;6.22;;;2.22;;
11743;SDS011;5929;51.906;7.674;2022-08-25T00:28:32;6.78;;;2.33;;
11743;SDS011;5929;51.906;7.674;2022-08-25T00:30:59;7.63;;;2.65;;
11743;SDS011;5929;51.906;7.674;2022-08-25T00:33:26;8.77;;;2.58;;
11743;SDS011;5929;51.906;7.674;2022-08-25T00:35:57;6.65;;;2.38;;
11743;SDS011;5929;51.906;7.674;2022-08-25T00:38:26;5.22;;;2.10;;
11743;SDS011;5929;51.906;7.674;2022-08-25T00:40:57;5.05;;;2.25;;
11743;SDS011;5929;51.906;7.674;2022-08-25T00:43:41;5.15;;;2.55;;
11743;SDS011;5929;51.906;7.674;2022-08-25T00:46:11;8.20;;;2.38;;
11743;SDS011;5929;51.906;7.674;2022-08-25T00:48:40;5.60;;;2.20;;
11743;SDS011;5929;51.906;7.674;2022-08-25T00:51:08;6.05;;;2.50;;
11743;SDS011;5929;51.906;7.674;2022-08-25T00:53:38;8.07;;;2.30;;
11743;SDS011;5929;51.906;7.674;2022-08-25T00:56:07;6.50;;;2.72;;
11743;SDS011;5929;51.906;7.674;2022-08-25T00:58:34;4.40;;;2.30;;
11743;SDS011;5929;51.906;7.674;2022-08-25T01:01:04;9.65;;;2.50;;
11743;SDS011;5929;51.906;7.674;2022-08-25T01:03:32;7.75;;;2.75;;
11743;SDS011;5929;51.906;7.674;2022-08-25T01:05:59;8.50;;;1.95;;
11743;SDS011;5929;51.906;7.674;2022-08-25T01:08:28;5.85;;;2.70;;
11743;SDS011;5929;51.906;7.674;2022-08-25T01:10:59;5.90;;;2.80;;
11743;SDS011;5929;51.906;7.674;2022-08-25T01:13:33;6.65;;;2.38;;
11743;SDS011;5929;51.906;7.674;2022-08-25T01:16:05;5.93;;;2.30;;
11743;SDS011;5929;51.906;7.674;2022-08-25T01:18:42;7.60;;;2.40;;
11743;SDS011;5929;51.906;7.674;2022-08-25T01:21:12;4.85;;;2.40;;
11743;SDS011;5929;51.906;7.674;2022-08-25T01:23:39;7.85;;;2.60;;
11743;SDS011;5929;51.906;7.674;2022-08-25T01:26:08;7.45;;;2.70;;
11743;SDS011;5929;51.906;7.674;2022-08-25T01:28:37;11.00;;;2.70;;
11743;SDS011;5929;51.906;7.674;2022-08-25T01:31:26;6.32;;;2.78;;
11743;SDS011;5929;51.906;7.674;2022-08-25T01:33:53;6.80;;;2.63;;
11743;SDS011;5929;51.906;7.674;2022-08-25T01:36:22;8.60;;;2.70;;
11743;SDS011;5929;51.906;7.674;2022-08-25T01:38:49;8.45;;;2.92;;
11743;SDS011;5929;51.906;7.674;2022-08-25T01:41:16;5.93;;;2.45;;
11743;SDS011;5929;51.906;7.674;2022-08-25T01:43:47;6.90;;;2.58;;
11743;SDS011;5929;51.906;7.674;2022-08-25T01:46:14;4.88;;;2.15;;
11743;SDS011;5929;51.906;7.674;2022-08-25T01:48:41;4.97;;;2.25;;
11743;SDS011;5929;51.906;7.674;2022-08-25T01:51:08;5.75;;;2.50;;
11743;SDS011;5929;51.906;7.674;2022-08-25T01:53:40;8.40;;;2.53;;
11743;SDS011;5929;51.906;7.674;2022-08-25T01:56:11;7.85;;;2.72;;
11743;SDS011;5929;51.906;7.674;2022-08-25T01:58:42;5.85;;;2.60;;
11743;SDS011;5929;51.906;7.674;2022-08-25T02:01:12;5.85;;;2.78;;
11743;SDS011;5929;51.906;7.674;2022-08-25T02:03:42;7.30;;;2.50;;
11743;SDS011;5929;51.906;7.674;2022-08-25T02:06:11;6.93;;;2.60;;
11743;SDS011;5929;51.906;7.674;2022-08-25T02:08:40;5.13;;;2.30;;
11743;SDS011;5929;51.906;7.674;2022-08-25T02:11:10;6.93;;;2.85;;
11743;SDS011;5929;51.906;7.674;2022-08-25T02:13:38;7.55;;;2.58;;
11743;SDS011;5929;51.906;7.674;2022-08-25T02:16:06;6.82;;;2.88;;
11743;SDS011;5929;51.906;7.674;2022-08-25T02:18:35;6.32;;;2.47;;
11743;SDS011;5929;51.906;7.674;2022-08-25T02:21:04;10.07;;;2.63;;
11743;SDS011;5929;51.906;7.674;2022-08-25T02:23:31;5.82;;;2.85;;
11743;SDS011;5929;51.906;7.674;2022-08-25T02:25:59;5.68;;;2.65;;
11743;SDS011;5929;51.906;7.674;2022-08-25T02:28:26;6.32;;;2.97;;
11743;SDS011;5929;51.906;7.674;2022-08-25T02:30:53;7.55;;;2.83;;
11743;SDS011;5929;51.906;7.674;2022-08-25T02:33:20;8.50;;;2.78;;
11743;SDS011;5929;51.906;7.674;2022-08-25T02:35:47;4.78;;;2.72;;
11743;SDS011;5929;51.906;7.674;2022-08-25T02:38:16;5.93;;;2.53;;
11743;SDS011;5929;51.906;7.674;2022-08-25T02:40:43;8.88;;;2.78;;
11743;SDS011;5929;51.906;7.674;2022-08-25T02:43:11;6.43;;;2.50;;
11743;SDS011;5929;51.906;7.674;2022-08-25T02:45:38;10.02;;;2.92;;
11743;SDS011;5929;51.906;7.674;2022-08-25T02:48:05;5.32;;;2.50;;
11743;SDS011;5929;51.906;7.674;2022-08-25T02:50:32;6.97;;;2.45;;
11743;SDS011;5929;51.906;7.674;2022-08-25T02:52:59;6.40;;;2.70;;
11743;SDS011;5929;51.906;7.674;2022-08-25T02:55:26;7.65;;;2.35;;
11743;SDS011;5929;51.906;7.674;2022-08-25T02:57:53;7.40;;;3.03;;
11743;SDS011;5929;51.906;7.674;2022-08-25T03:00:23;6.72;;;2.88;;
11743;SDS011;5929;51.906;7.674;2022-08-25T03:02:50;6.28;;;2.88;;
11743;SDS011;5929;51.906;7.674;2022-08-25T03:05:20;6.43;;;2.97;;
11743;SDS011;5929;51.906;7.674;2022-08-25T03:07:46;6.72;;;2.80;;
11743;SDS011;5929;51.906;7.674;2022-08-25T03:10:14;7.35;;;2.92;;
11743;SDS011;5929;51.906;7.674;2022-08-25T03:12:42;6.00;;;2.78;;
11743;SDS011;5929;51.906;7.674;2022-08-25T03:15:10;8.25;;;2.97;;
11743;SDS011;5929;51.906;7.674;2022-08-25T03:17:41;5.97;;;2.97;;
11743;SDS011;5929;51.906;7.674;2022-08-25T03:20:08;5.57;;;2.72;;
11743;SDS011;5929;51.906;7.674;2022-08-25T03:22:36;6.07;;;3.00;;
11743;SDS011;5929;51.906;7.674;2022-08-25T03:25:06;5.40;;;2.65;;
11743;SDS011;5929;51.906;7.674;2022-08-25T03:28:05;7.30;;;2.53;;
11743;SDS011;5929;51.906;7.674;2022-08-25T03:30:35;7.38;;;2.78;;
11743;SDS011;5929;51.906;7.674;2022-08-25T03:33:03;7.65;;;3.10;;
11743;SDS011;5929;51.906;7.674;2022-08-25T03:35:30;8.35;;;3.25;;
11743;SDS011;5929;51.906;7.674;2022-08-25T03:37:57;10.30;;;3.10;;
11743;SDS011;5929;51.906;7.674;2022-08-25T03:40:24;7.78;;;3.33;;
11743;SDS011;5929;51.906;7.674;2022-08-25T03:42:52;8.05;;;2.75;;
11743;SDS011;5929;51.906;7.674;2022-08-25T03:45:21;6.63;;;3.17;;
11743;SDS011;5929;51.906;7.674;2022-08-25T03:47:51;5.93;;;3.08;;
11743;SDS011;5929;51.906;7.674;2022-08-25T03:50:20;8.70;;;3.20;;
11743;SDS011;5929;51.906;7.674;2022-08-25T03:52:51;5.82;;;3.10;;
11743;SDS011;5929;51.906;7.674;2022-08-25T03:55:20;9.40;;;3.30;;
11743;SDS011;5929;51.906;7.674;2022-08-25T03:57:49;6.20;;;3.28;;
11743;SDS011;5929;51.906;7.674;2022-08-25T04:00:16;6.10;;;3.00;;
11743;SDS011;5929;51.906;7.674;2022-08-25T04:02:44;7.38;;;3.40;;
11743;SDS011;5929;51.906;7.674;2022-08-25T04:05:11;9.63;;;3.90;;
11743;SDS011;5929;51.906;7.674;2022-08-25T04:07:39;6.50;;;3.33;;
11743;SDS011;5929;51.906;7.674;2022-08-25T04:10:07;7.82;;;3.50;;
11743;SDS011;5929;51.906;7.674;2022-08-25T04:12:36;5.95;;;3.85;;
11743;SDS011;5929;51.906;7.674;2022-08-25T04:15:04;10.10;;;3.67;;
11743;SDS011;5929;51.906;7.674;2022-08-25T04:17:32;10.20;;;3.63;;
11743;SDS011;5929;51.906;7.674;2022-08-25T04:19:59;9.25;;;3.40;;
11743;SDS011;5929;51.906;7.674;2022-08-25T04:22:27;7.75;;;3.42;;
11743;SDS011;5929;51.906;7.674;2022-08-25T04:24:56;7.55;;;3.80;;
11743;SDS011;5929;51.906;7.674;2022-08-25T04:27:24;6.50;;;3.83;;
11743;SDS011;5929;51.906;7.674;2022-08-25T04:29:50;7.93;;;3.55;;
11743;SDS011;5929;51.906;7.674;2022-08-25T04:32:17;8.27;;;3.85;;
11743;SDS011;5929;51.906;7.674;2022-08-25T04:34:44;9.15;;;3.83;;
11743;SDS011;5929;51.906;7.674;2022-08-25T04:37:12;7.65;;;3.72;;
11743;SDS011;5929;51.906;7.674;2022-08-25T04:39:41;11.55;;;4.15;;
11743;SDS011;5929;51.906;7.674;2022-08-25T04:42:09;9.02;;;4.03;;
11743;SDS011;5929;51.906;7.674;2022-08-25T04:44:36;8.13;;;3.72;;
11743;SDS011;5929;51.906;7.674;2022-08-25T04:47:03;6.32;;;3.88;;
11743;SDS011;5929;51.906;7.674;2022-08-25T04:49:30;8.65;;;3.90;;
11743;SDS011;5929;51.906;7.674;2022-08-25T04:51:57;6.65;;;3.90;;
11743;SDS011;5929;51.906;7.674;2022-08-25T04:54:24;7.22;;;4.15;;
11743;SDS011;5929;51.906;7.674;2022-08-25T04:56:52;6.75;;;4.28;;
11743;SDS011;5929;51.906;7.674;2022-08-25T04:59:23;9.52;;;4.60;;
11743;SDS011;5929;51.906;7.674;2022-08-25T05:01:50;11.73;;;4.55;;
11743;SDS011;5929;51.906;7.674;2022-08-25T05:04:19;15.07;;;4.53;;
11743;SDS011;5929;51.906;7.674;2022-08-25T05:06:46;13.23;;;4.22;;
11743;SDS011;5929;51.906;7.674;2022-08-25T05:09:13;12.13;;;4.70;;
11743;SDS011;5929;51.906;7.674;2022-08-25T05:11:40;8.68;;;4.30;;
11743;SDS011;5929;51.906;7.674;2022-08-25T05:14:09;14.35;;;4.93;;
11743;SDS011;5929;51.906;7.674;2022-08-25T05:16:40;8.85;;;4.25;;
11743;SDS011;5929;51.906;7.674;2022-08-25T05:19:07;6.20;;;4.10;;
11743;SDS011;5929;51.906;7.674;2022-08-25T05:21:34;10.02;;;4.50;;
11743;SDS011;5929;51.906;7.674;2022-08-25T05:24:02;9.43;;;4.20;;
11743;SDS011;5929;51.906;7.674;2022-08-25T05:26:30;9.27;;;4.38;;
11743;SDS011;5929;51.906;7.674;2022-08-25T05:28:58;11.95;;;4.25;;
11743;SDS011;5929;51.906;7.674;2022-08-25T05:31:29;11.25;;;4.20;;
11743;SDS011;5929;51.906;7.674;2022-08-25T05:33:58;12.82;;;4.22;;
11743;SDS011;5929;51.906;7.674;2022-08-25T05:36:25;8.73;;;4.40;;
11743;SDS011;5929;51.906;7.674;2022-08-25T05:38:53;14.18;;;4.55;;
11743;SDS011;5929;51.906;7.674;2022-08-25T05:41:23;17.17;;;4.78;;
11743;SDS011;5929;51.906;7.674;2022-08-25T05:43:52;29.67;;;5.03;;
11743;SDS011;5929;51.906;7.674;2022-08-25T05:46:19;15.68;;;4.85;;
11743;SDS011;5929;51.906;7.674;2022-08-25T05:48:47;13.18;;;4.68;;
11743;SDS011;5929;51.906;7.674;2022-08-25T05:51:15;11.77;;;4.20;;
11743;SDS011;5929;51.906;7.674;2022-08-25T05:53:45;12.18;;;4.60;;
11743;SDS011;5929;51.906;7.674;2022-08-25T05:56:13;11.52;;;5.18;;
11743;SDS011;5929;51.906;7.674;2022-08-25T05:58:41;14.48;;;4.68;;
11743;SDS011;5929;51.906;7.674;2022-08-25T06:01:09;20.15;;;4.97;;
11743;SDS011;5929;51.906;7.674;2022-08-25T06:04:10;17.20;;;4.60;;
11743;SDS011;5929;51.906;7.674;2022-08-25T06:06:39;11.73;;;4.43;;
11743;SDS011;5929;51.906;7.674;2022-08-25T06:09:06;13.32;;;4.07;;
11743;SDS011;5929;51.906;7.674;2022-08-25T06:11:35;16.58;;;4.70;;
11743;SDS011;5929;51.906;7.674;2022-08-25T06:14:03;12.52;;;4.25;;
11743;SDS011;5929;51.906;7.674;2022-08-25T06:16:31;10.77;;;4.45;;
11743;SDS011;5929;51.906;7.674;2022-08-25T06:18:58;9.82;;;4.60;;
11743;SDS011;5929;51.906;7.674;2022-08-25T06:21:25;8.18;;;4.65;;
11743;SDS011;5929;51.906;7.674;2022-08-25T06:23:53;9.23;;;4.57;;
11743;SDS011;5929;51.906;7.674;2022-08-25T06:26:20;8.88;;;4.72;;
11743;SDS011;5929;51.906;7.674;2022-08-25T06:28:50;10.57;;;4.63;;
11743;SDS011;5929;51.906;7.674;2022-08-25T06:31:19;8.32;;;4.85;;
11743;SDS011;5929;51.906;7.674;2022-08-25T06:33:47;9.55;;;4.90;;
11743;SDS011;5929;51.906;7.674;2022-08-25T06:36:15;8.15;;;5.25;;
11743;SDS011;5929;51.906;7.674;2022-08-25T06:38:43;10.80;;;4.75;;
11743;SDS011;5929;51.906;7.674;2022-08-25T06:41:11;12.48;;;5.03;;
11743;SDS011;5929;51.906;7.674;2022-08-25T06:43:40;7.93;;;4.63;;
11743;SDS011;5929;51.906;7.674;2022-08-25T06:46:11;9.18;;;4.80;;
11743;SDS011;5929;51.906;7.674;2022-08-25T06:48:39;7.80;;;4.53;;
11743;SDS011;5929;51.906;7.674;2022-08-25T06:51:06;10.07;;;5.10;;
11743;SDS011;5929;51.906;7.674;2022-08-25T06:53:34;11.27;;;4.95;;
11743;SDS011;5929;51.906;7.674;2022-08-25T06:56:02;8.07;;;4.80;;
11743;SDS011;5929;51.906;7.674;2022-08-25T06:58:32;9.65;;;5.57;;
11743;SDS011;5929;51.906;7.674;2022-08-25T07:01:05;9.43;;;4.60;;
11743;SDS011;5929;51.906;7.674;2022-08-25T07:03:33;9.80;;;5.65;;
11743;SDS011;5929;51.906;7.674;2022-08-25T07:06:00;9.27;;;4.82;;
11743;SDS011;5929;51.906;7.674;2022-08-25T07:08:27;12.25;;;5.53;;
11743;SDS011;5929;51.906;7.674;2022-08-25T07:10:54;9.75;;;4.88;;
11743;SDS011;5929;51.906;7.674;2022-08-25T07:13:21;8.60;;;5.03;;
11743;SDS011;5929;51.906;7.674;2022-08-25T07:15:53;8.25;;;4.72;;
11743;SDS011;5929;51.906;7.674;2022-08-25T07:18:20;10.50;;;4.82;;
11743;SDS011;5929;51.906;7.674;2022-08-25T07:20:47;10.20;;;4.95;;
11743;SDS011;5929;51.906;7.674;2022-08-25T07:23:16;12.02;;;5.05;;
11743;SDS011;5929;51.906;7.674;2022-08-25T07:25:43;8.85;;;5.20;;
11743;SDS011;5929;51.906;7.674;2022-08-25T07:28:10;8.40;;;5.18;;
11743;SDS011;5929;51.906;7.674;2022-08-25T07:30:37;13.10;;;5.47;;
11743;SDS011;5929;51.906;7.674;2022-08-25T07:33:05;9.80;;;5.43;;
11743;SDS011;5929;51.906;7.674;2022-08-25T07:35:32;9.00;;;4.72;;
11743;SDS011;5929;51.906;7.674;2022-08-25T07:37:58;10.88;;;5.60;;
11743;SDS011;5929;51.906;7.674;2022-08-25T07:40:26;11.18;;;5.43;;
11743;SDS011;5929;51.906;7.674;2022-08-25T07:42:57;8.25;;;4.97;;
11743;SDS011;5929;51.906;7.674;2022-08-25T07:45:26;11.07;;;5.45;;
11743;SDS011;5929;51.906;7.674;2022-08-25T07:47:57;12.13;;;5.15;;
11743;SDS011;5929;51.906;7.674;2022-08-25T07:50:27;9.52;;;4.97;;
11743;SDS011;5929;51.906;7.674;2022-08-25T07:52:55;10.70;;;5.32;;
11743;SDS011;5929;51.906;7.674;2022-08-25T07:55:23;7.45;;;5.07;;
11743;SDS011;5929;51.906;7.674;2022-08-25T07:57:50;8.63;;;5.13;;
11743;SDS011;5929;51.906;7.674;2022-08-25T08:00:18;8.00;;;5.03;;
11743;SDS011;5929;51.906;7.674;2022-08-25T08:02:45;8.45;;;4.88;;
11743;SDS011;5929;51.906;7.674;2022-08-25T08:05:13;10.18;;;5.35;;
11743;SDS011;5929;51.906;7.674;2022-08-25T08:07:41;11.43;;;5.68;;
11743;SDS011;5929;51.906;7.674;2022-08-25T08:10:10;9.38;;;5.03;;
11743;SDS011;5929;51.906;7.674;2022-08-25T08:12:41;7.65;;;5.13;;
11743;SDS011;5929;51.906;7.674;2022-08-25T08:15:08;9.88;;;5.10;;
11743;SDS011;5929;51.906;7.674;2022-08-25T08:17:35;9.27;;;5.68;;
11743;SDS011;5929;51.906;7.674;2022-08-25T08:20:02;12.32;;;5.55;;
11743;SDS011;5929;51.906;7.674;2022-08-25T08:22:32;8.32;;;5.38;;
11743;SDS011;5929;51.906;7.674;2022-08-25T08:25:01;7.10;;;4.68;;
11743;SDS011;5929;51.906;7.674;2022-08-25T08:27:28;15.25;;;5.38;;
11743;SDS011;5929;51.906;7.674;2022-08-25T08:29:55;9.02;;;5.00;;
11743;SDS011;5929;51.906;7.674;2022-08-25T08:32:21;12.63;;;5.60;;
11743;SDS011;5929;51.906;7.674;2022-08-25T08:34:48;10.05;;;4.93;;
11743;SDS011;5929;51.906;7.674;2022-08-25T08:37:15;12.45;;;5.60;;
11743;SDS011;5929;51.906;7.674;2022-08-25T08:39:42;10.73;;;5.82;;
11743;SDS011;5929;51.906;7.674;2022-08-25T08:42:16;11.63;;;5.75;;
11743;SDS011;5929;51.906;7.674;2022-08-25T08:44:57;9.93;;;5.95;;
11743;SDS011;5929;51.906;7.674;2022-08-25T08:47:36;9.18;;;5.30;;
11743;SDS011;5929;51.906;7.674;2022-08-25T08:50:20;6.93;;;5.00;;
11743;SDS011;5929;51.906;7.674;2022-08-25T08:52:54;11.68;;;5.22;;
11743;SDS011;5929;51.906;7.674;2022-08-25T08:55:25;11.00;;;5.07;;
11743;SDS011;5929;51.906;7.674;2022-08-25T08:58:01;8.95;;;5.22;;
11743;SDS011;5929;51.906;7.674;2022-08-25T09:00:30;13.15;;;5.38;;
11743;SDS011;5929;51.906;7.674;2022-08-25T09:03:05;9.00;;;5.28;;
11743;SDS011;5929;51.906;7.674;2022-08-25T09:05:35;11.15;;;5.55;;
11743;SDS011;5929;51.906;7.674;2022-08-25T09:08:09;7.57;;;4.85;;
11743;SDS011;5929;51.906;7.674;2022-08-25T09:10:40;8.50;;;4.60;;
11743;SDS011;5929;51.906;7.674;2022-08-25T09:13:28;10.48;;;5.22;;
11743;SDS011;5929;51.906;7.674;2022-08-25T09:16:03;10.98;;;5.53;;
11743;SDS011;5929;51.906;7.674;2022-08-25T09:18:54;10.55;;;5.18;;
11743;SDS011;5929;51.906;7.674;2022-08-25T09:21:28;10.57;;;5.03;;
11743;SDS011;5929;51.906;7.674;2022-08-25T09:26:52;8.07;;;4.70;;
11743;SDS011;5929;51.906;7.674;2022-08-25T09:29:35;10.60;;;5.22;;
11743;SDS011;5929;51.906;7.674;2022-08-25T09:32:15;7.85;;;4.70;;
11743;SDS011;5929;51.906;7.674;2022-08-25T09:34:43;8.30;;;4.72;;
11743;SDS011;5929;51.906;7.674;2022-08-25T09:37:12;10.07;;;4.70;;
11743;SDS011;5929;51.906;7.674;2022-08-25T09:39:40;11.55;;;4.80;;
11743;SDS011;5929;51.906;7.674;2022-08-25T09:42:07;7.38;;;4.43;;
11743;SDS011;5929;51.906;7.674;2022-08-25T09:44:38;9.10;;;4.00;;
11743;SDS011;5929;51.906;7.674;2022-08-25T09:47:12;13.13;;;4.60;;
11743;SDS011;5929;51.906;7.674;2022-08-25T09:49:45;7.65;;;3.85;;
11743;SDS011;5929;51.906;7.674;2022-08-25T09:52:22;7.32;;;3.85;;
11743;SDS011;5929;51.906;7.674;2022-08-25T09:54:58;7.15;;;3.90;;
11743;SDS011;5929;51.906;7.674;2022-08-25T09:57:43;6.25;;;3.15;;
11743;SDS011;5929;51.906;7.674;2022-08-25T10:00:16;9.05;;;3.85;;
11743;SDS011;5929;51.906;7.674;2022-08-25T10:02:59;8.88;;;3.90;;
11743;SDS011;5929;51.906;7.674;2022-08-25T10:05:33;7.57;;;3.80;;
11743;SDS011;5929;51.906;7.674;2022-08-25T10:08:02;8.05;;;4.32;;
11743;SDS011;5929;51.906;7.674;2022-08-25T10:10:37;7.55;;;3.75;;
11743;SDS011;5929;51.906;7.674;2022-08-25T10:13:12;9.93;;;4.07;;
11743;SDS011;5929;51.906;7.674;2022-08-25T10:15:41;7.40;;;4.00;;
11743;SDS011;5929;51.906;7.674;2022-08-25T10:18:19;6.43;;;4.20;;
11743;SDS011;5929;51.906;7.674;2022-08-25T10:21:02;8.63;;;3.78;;
11743;SDS011;5929;51.906;7.674;2022-08-25T10:23:32;6.88;;;4.20;;
11743;SDS011;5929;51.906;7.674;2022-08-25T10:26:04;9.52;;;4.72;;
11743;SDS011;5929;51.906;7.674;2022-08-25T10:28:37;7.05;;;4.35;;
11743;SDS011;5929;51.906;7.674;2022-08-25T10:31:14;11.82;;;4.55;;
11743;SDS011;5929;51.906;7.674;2022-08-25T10:33:57;7.22;;;4.57;;
11743;SDS011;5929;51.906;7.674;2022-08-25T10:36:38;7.20;;;4.00;;
11743;SDS011;5929;51.906;7.674;2022-08-25T10:39:16;7.97;;;4.63;;
11743;SDS011;5929;51.906;7.674;2022-08-25T10:42:02;7.82;;;5.07;;
11743;SDS011;5929;51.906;7.674;2022-08-25T10:45:02;9.07;;;4.72;;
11743;SDS011;5929;51.906;7.674;2022-08-25T10:48:05;10.68;;;4.20;;
11743;SDS011;5929;51.906;7.674;2022-08-25T10:51:00;7.47;;;4.60;;
11743;SDS011;5929;51.906;7.674;2022-08-25T10:53:35;11.82;;;3.90;;
11743;SDS011;5929;51.906;7.674;2022-08-25T10:56:12;9.68;;;3.72;;
11743;SDS011;5929;51.906;7.674;2022-08-25T11:01:38;11.27;;;3.95;;
11743;SDS011;5929;51.906;7.674;2022-08-25T11:04:31;6.30;;;3.78;;
11743;SDS011;5929;51.906;7.674;2022-08-25T11:07:04;5.75;;;3.90;;
11743;SDS011;5929;51.906;7.674;2022-08-25T11:09:36;7.68;;;3.45;;
11743;SDS011;5929;51.906;7.674;2022-08-25T11:12:07;7.00;;;3.53;;
11743;SDS011;5929;51.906;7.674;2022-08-25T11:14:39;6.13;;;3.90;;
11743;SDS011;5929;51.906;7.674;2022-08-25T11:17:13;7.95;;;3.85;;
11743;SDS011;5929;51.906;7.674;2022-08-25T11:19:44;8.57;;;4.13;;
11743;SDS011;5929;51.906;7.674;2022-08-25T11:22:16;8.70;;;4.32;;
11743;SDS011;5929;51.906;7.674;2022-08-25T11:24:52;7.20;;;3.75;;
11743;SDS011;5929;51.906;7.674;2022-08-25T11:27:27;8.95;;;4.15;;
11743;SDS011;5929;51.906;7.674;2022-08-25T11:30:01;7.88;;;3.72;;
11743;SDS011;5929;51.906;7.674;2022-08-25T11:32:35;8.70;;;4.00;;
11743;SDS011;5929;51.906;7.674;2022-08-25T11:35:05;6.82;;;3.78;;
11743;SDS011;5929;51.906;7.674;2022-08-25T11:37:33;8.65;;;3.60;;
11743;SDS011;5929;51.906;7.674;2022-08-25T11:40:13;5.93;;;3.67;;
11743;SDS011;5929;51.906;7.674;2022-08-25T11:42:51;5.97;;;3.70;;
11743;SDS011;5929;51.906;7.674;2022-08-25T11:45:39;9.07;;;3.55;;
11743;SDS011;5929;51.906;7.674;2022-08-25T11:48:21;8.48;;;3.90;;
11743;SDS011;5929;51.906;7.674;2022-08-25T11:50:57;7.43;;;3.50;;
11743;SDS011;5929;51.906;7.674;2022-08-25T11:53:27;7.38;;;3.65;;
11743;SDS011;5929;51.906;7.674;2022-08-25T11:55:56;6.00;;;3.42;;
11743;SDS011;5929;51.906;7.674;2022-08-25T11:58:39;7.75;;;4.38;;
11743;SDS011;5929;51.906;7.674;2022-08-25T12:01:09;5.43;;;3.70;;
11743;SDS011;5929;51.906;7.674;2022-08-25T12:03:45;7.60;;;4.20;;
11743;SDS011;5929;51.906;7.674;2022-08-25T12:06:23;6.40;;;3.60;;
11743;SDS011;5929;51.906;7.674;2022-08-25T12:08:53;6.90;;;3.47;;
11743;SDS011;5929;51.906;7.674;2022-08-25T12:11:51;7.50;;;3.75;;
11743;SDS011;5929;51.906;7.674;2022-08-25T12:17:17;8.75;;;3.58;;
11743;SDS011;5929;51.906;7.674;2022-08-25T12:19:48;7.95;;;4.03;;
11743;SDS011;5929;51.906;7.674;2022-08-25T12:25:41;6.88;;;4.18;;
11743;SDS011;5929;51.906;7.674;2022-08-25T12:28:25;6.15;;;3.38;;
11743;SDS011;5929;51.906;7.674;2022-08-25T12:31:02;7.03;;;3.53;;
11743;SDS011;5929;51.906;7.674;2022-08-25T12:33:39;9.13;;;3.95;;
11743;SDS011;5929;51.906;7.674;2022-08-25T12:36:24;7.13;;;3.58;;
11743;SDS011;5929;51.906;7.674;2022-08-25T12:38:52;6.78;;;4.07;;
11743;SDS011;5929;51.906;7.674;2022-08-25T12:41:21;8.25;;;4.10;;
11743;SDS011;5929;51.906;7.674;2022-08-25T12:43:52;6.95;;;4.05;;
11743;SDS011;5929;51.906;7.674;2022-08-25T12:46:35;10.63;;;4.07;;
11743;SDS011;5929;51.906;7.674;2022-08-25T12:49:09;7.18;;;4.32;;
11743;SDS011;5929;51.906;7.674;2022-08-25T12:51:55;8.50;;;4.10;;
11743;SDS011;5929;51.906;7.674;2022-08-25T12:54:30;7.63;;;3.97;;
11743;SDS011;5929;51.906;7.674;2022-08-25T12:59:58;8.40;;;4.00;;
11743;SDS011;5929;51.906;7.674;2022-08-25T13:02:45;6.47;;;4.20;;
11743;SDS011;5929;51.906;7.674;2022-08-25T13:05:36;7.15;;;4.32;;
11743;SDS011;5929;51.906;7.674;2022-08-25T13:08:29;7.05;;;4.32;;
11743;SDS011;5929;51.906;7.674;2022-08-25T13:11:11;6.57;;;3.92;;
11743;SDS011;5929;51.906;7.674;2022-08-25T13:13:48;9.52;;;3.78;;
11743;SDS011;5929;51.906;7.674;2022-08-25T13:16:22;5.80;;;3.70;;
11743;SDS011;5929;51.906;7.674;2022-08-25T13:18:51;7.68;;;4.13;;
11743;SDS011;5929;51.906;7.674;2022-08-25T13:21:23;7.07;;;4.22;;
11743;SDS011;5929;51.906;7.674;2022-08-25T13:23:55;8.13;;;4.05;;
11743;SDS011;5929;51.906;7.674;2022-08-25T13:26:26;7.75;;;4.63;;
11743;SDS011;5929;51.906;7.674;2022-08-25T13:28:57;8.15;;;4.32;;
11743;SDS011;5929;51.906;7.674;2022-08-25T13:31:26;7.38;;;3.92;;
11743;SDS011;5929;51.906;7.674;2022-08-25T13:33:56;7.82;;;4.15;;
11743;SDS011;5929;51.906;7.674;2022-08-25T13:36:26;8.20;;;4.45;;
11743;SDS011;5929;51.906;7.674;2022-08-25T13:39:13;8.45;;;4.65;;
11743;SDS011;5929;51.906;7.674;2022-08-25T13:41:45;7.38;;;4.25;;
11743;SDS011;5929;51.906;7.674;2022-08-25T13:44:14;8.32;;;4.25;;
11743;SDS011;5929;51.906;7.674;2022-08-25T13:46:43;6.85;;;4.35;;
11743;SDS011;5929;51.906;7.674;2022-08-25T13:49:11;7.20;;;4.45;;
11743;SDS011;5929;51.906;7.674;2022-08-25T13:51:50;8.80;;;4.45;;
11743;SDS011;5929;51.906;7.674;2022-08-25T13:54:23;7.72;;;4.40;;
11743;SDS011;5929;51.906;7.674;2022-08-25T13:56:52;6.70;;;4.15;;
11743;SDS011;5929;51.906;7.674;2022-08-25T13:59:23;7.15;;;4.28;;
11743;SDS011;5929;51.906;7.674;2022-08-25T14:01:52;6.38;;;4.70;;
11743;SDS011;5929;51.906;7.674;2022-08-25T14:04:30;8.88;;;4.80;;
11743;SDS011;5929;51.906;7.674;2022-08-25T14:07:05;6.55;;;4.50;;
11743;SDS011;5929;51.906;7.674;2022-08-25T14:09:38;8.98;;;4.32;;
11743;SDS011;5929;51.906;7.674;2022-08-25T14:12:06;8.18;;;4.53;;
11743;SDS011;5929;51.906;7.674;2022-08-25T14:14:34;7.13;;;4.25;;
11743;SDS011;5929;51.906;7.674;2022-08-25T14:17:03;9.95;;;4.68;;
11743;SDS011;5929;51.906;7.674;2022-08-25T14:19:32;8.93;;;4.50;;
11743;SDS011;5929;51.906;7.674;2022-08-25T14:22:02;7.07;;;4.55;;
11743;SDS011;5929;51.906;7.674;2022-08-25T14:24:30;8.07;;;4.68;;
11743;SDS011;5929;51.906;7.674;2022-08-25T14:26:59;13.13;;;4.97;;
11743;SDS011;5929;51.906;7.674;2022-08-25T14:29:27;8.23;;;4.60;;
11743;SDS011;5929;51.906;7.674;2022-08-25T14:31:56;6.78;;;4.80;;
11743;SDS011;5929;51.906;7.674;2022-08-25T14:34:25;9.77;;;5.10;;
11743;SDS011;5929;51.906;7.674;2022-08-25T14:36:55;8.35;;;5.15;;
11743;SDS011;5929;51.906;7.674;2022-08-25T14:39:24;8.13;;;4.43;;
11743;SDS011;5929;51.906;7.674;2022-08-25T14:41:50;11.00;;;4.82;;
11743;SDS011;5929;51.906;7.674;2022-08-25T14:44:18;10.52;;;5.10;;
11743;SDS011;5929;51.906;7.674;2022-08-25T14:46:48;8.60;;;4.82;;
11743;SDS011;5929;51.906;7.674;2022-08-25T14:49:19;8.80;;;4.53;;
11743;SDS011;5929;51.906;7.674;2022-08-25T14:51:51;8.30;;;5.07;;
11743;SDS011;5929;51.906;7.674;2022-08-25T14:54:19;9.32;;;5.03;;
11743;SDS011;5929;51.906;7.674;2022-08-25T14:56:49;7.22;;;5.00;;
11743;SDS011;5929;51.906;7.674;2022-08-25T14:59:16;6.43;;;4.38;;
11743;SDS011;5929;51.906;7.674;2022-08-25T15:01:44;7.80;;;4.47;;
11743;SDS011;5929;51.906;7.674;2022-08-25T15:04:14;9.35;;;5.10;;
11743;SDS011;5929;51.906;7.674;2022-08-25T15:06:45;10.07;;;5.13;;
11743;SDS011;5929;51.906;7.674;2022-08-25T15:09:16;8.30;;;4.47;;
11743;SDS011;5929;51.906;7.674;2022-08-25T15:11:42;6.22;;;4.45;;
11743;SDS011;5929;51.906;7.674;2022-08-25T15:14:11;10.40;;;4.75;;
11743;SDS011;5929;51.906;7.674;2022-08-25T15:16:40;8.93;;;4.80;;
11743;SDS011;5929;51.906;7.674;2022-08-25T15:19:10;10.35;;;4.55;;
11743;SDS011;5929;51.906;7.674;2022-08-25T15:21:40;9.68;;;4.55;;
11743;SDS011;5929;51.906;7.674;2022-08-25T15:24:09;7.68;;;4.47;;
11743;SDS011;5929;51.906;7.674;2022-08-25T15:26:37;9.85;;;4.28;;
11743;SDS011;5929;51.906;7.674;2022-08-25T15:29:08;7.05;;;4.47;;
11743;SDS011;5929;51.906;7.674;2022-08-25T15:31:35;7.05;;;4.72;;
11743;SDS011;5929;51.906;7.674;2022-08-25T15:34:02;8.65;;;4.75;;
11743;SDS011;5929;51.906;7.674;2022-08-25T15:36:29;8.00;;;4.43;;